sensor_id;sensor_type;location;lat;lon;timestamp;pressure;altitude;pressure_sealevel;temperature;humidity
72560;BME280;62987;52.382;9.752;2022-11-18T00:01:20;99259.03;;;6.08;89.22
72560;BME280;62987;52.382;9.752;2022-11-18T00:03:50;99271.97;;;5.95;89.96
72560;BME280;62987;52.382;9.752;2022-11-18T00:06:20;99264.44;;;6.23;89.71
72560;BME280;62987;52.382;9.752;2022-11-18T00:08:49;99277.88;;;6.00;89.98
72560;BME280;62987;52.382;9.752;2022-11-18T00:11:20;99274.00;;;6.07;90.06
72560;BME280;62987;52.382;9.752;2022-11-18T00:14:11;99285.06;;;5.96;90.28
72560;BME280;62987;52.382;9.752;2022-11-18T00:16:47;99279.22;;;6.09;89.91
72560;BME280;62987;52.382;9.752;2022-11-18T00:19:16;99289.41;;;5.97;89.91
72560;BME280;62987;52.382;9.752;2022-11-18T00:21:45;99276.16;;;5.99;90.34
72560;BME280;62987;52.382;9.752;2022-11-18T00:24:13;99288.84;;;5.91;90.57
72560;BME280;62987;52.382;9.752;2022-11-18T00:26:42;99285.16;;;5.95;90.07
72560;BME280;62987;52.382;9.752;2022-11-18T00:29:11;99291.56;;;5.89;90.15
72560;BME280;62987;52.382;9.752;2022-11-18T00:31:40;99275.78;;;5.88;90.50
72560;BME280;62987;52.382;9.752;2022-11-18T00:34:10;99277.66;;;5.84;89.92
72560;BME280;62987;52.382;9.752;2022-11-18T00:36:39;99288.25;;;5.64;91.13
72560;BME280;62987;52.382;9.752;2022-11-18T00:39:09;99295.13;;;5.88;91.20
72560;BME280;62987;52.382;9.752;2022-11-18T00:41:37;99281.66;;;5.74;90.36
72560;BME280;62987;52.382;9.752;2022-11-18T00:44:24;99289.25;;;5.82;90.01
72560;BME280;62987;52.382;9.752;2022-11-18T00:46:53;99296.94;;;5.86;90.42
72560;BME280;62987;52.382;9.752;2022-11-18T00:49:21;99287.81;;;5.75;89.91
72560;BME280;62987;52.382;9.752;2022-11-18T00:51:50;99298.94;;;5.81;90.19
72560;BME280;62987;52.382;9.752;2022-11-18T00:54:18;99300.41;;;5.88;89.47
72560;BME280;62987;52.382;9.752;2022-11-18T00:56:46;99299.72;;;5.83;90.11
72560;BME280;62987;52.382;9.752;2022-11-18T00:59:14;99304.91;;;5.85;89.56
72560;BME280;62987;52.382;9.752;2022-11-18T01:01:43;99308.56;;;6.03;88.79
72560;BME280;62987;52.382;9.752;2022-11-18T01:04:12;99307.66;;;5.83;89.72
72560;BME280;62987;52.382;9.752;2022-11-18T01:06:40;99306.63;;;5.86;89.76
72560;BME280;62987;52.382;9.752;2022-11-18T01:09:08;99306.84;;;6.01;89.12
72560;BME280;62987;52.382;9.752;2022-11-18T01:11:36;99300.25;;;6.10;88.61
72560;BME280;62987;52.382;9.752;2022-11-18T01:14:22;99316.66;;;5.98;89.05
72560;BME280;62987;52.382;9.752;2022-11-18T01:16:56;99325.94;;;6.07;88.81
72560;BME280;62987;52.382;9.752;2022-11-18T01:19:25;99321.22;;;5.94;89.18
72560;BME280;62987;52.382;9.752;2022-11-18T01:21:53;99328.50;;;5.89;89.54
72560;BME280;62987;52.382;9.752;2022-11-18T01:24:22;99326.63;;;5.91;89.07
72560;BME280;62987;52.382;9.752;2022-11-18T01:26:50;99337.44;;;5.85;89.26
72560;BME280;62987;52.382;9.752;2022-11-18T01:29:19;99334.03;;;5.83;89.46
72560;BME280;62987;52.382;9.752;2022-11-18T01:31:47;99329.72;;;6.01;89.09
72560;BME280;62987;52.382;9.752;2022-11-18T01:34:37;99338.78;;;5.95;89.28
72560;BME280;62987;52.382;9.752;2022-11-18T01:37:05;99339.88;;;5.90;89.01
72560;BME280;62987;52.382;9.752;2022-11-18T01:39:33;99339.31;;;5.83;89.34
72560;BME280;62987;52.382;9.752;2022-11-18T01:42:01;99333.88;;;5.86;89.07
72560;BME280;62987;52.382;9.752;2022-11-18T01:44:58;99326.34;;;5.97;88.42
72560;BME280;62987;52.382;9.752;2022-11-18T01:47:29;99327.22;;;5.98;89.10
72560;BME280;62987;52.382;9.752;2022-11-18T01:50:00;99327.78;;;6.05;88.59
72560;BME280;62987;52.382;9.752;2022-11-18T01:52:29;99321.41;;;5.90;89.08
72560;BME280;62987;52.382;9.752;2022-11-18T01:55:03;99325.59;;;5.95;89.23
72560;BME280;62987;52.382;9.752;2022-11-18T01:57:33;99327.28;;;5.96;88.93
72560;BME280;62987;52.382;9.752;2022-11-18T02:00:04;99339.88;;;5.90;89.24
72560;BME280;62987;52.382;9.752;2022-11-18T02:02:34;99339.16;;;5.86;89.51
72560;BME280;62987;52.382;9.752;2022-11-18T02:05:06;99340.34;;;5.99;89.01
72560;BME280;62987;52.382;9.752;2022-11-18T02:07:38;99344.91;;;5.96;88.62
72560;BME280;62987;52.382;9.752;2022-11-18T02:10:09;99347.41;;;5.99;88.84
72560;BME280;62987;52.382;9.752;2022-11-18T02:12:43;99362.31;;;6.00;88.38
72560;BME280;62987;52.382;9.752;2022-11-18T02:15:11;99361.22;;;5.84;88.74
72560;BME280;62987;52.382;9.752;2022-11-18T02:17:45;99367.59;;;6.00;88.39
72560;BME280;62987;52.382;9.752;2022-11-18T02:20:27;99368.50;;;5.99;88.67
72560;BME280;62987;52.382;9.752;2022-11-18T02:23:15;99369.88;;;6.08;87.39
72560;BME280;62987;52.382;9.752;2022-11-18T02:26:02;99351.69;;;6.01;87.54
72560;BME280;62987;52.382;9.752;2022-11-18T02:28:36;99375.44;;;6.01;87.80
72560;BME280;62987;52.382;9.752;2022-11-18T02:31:14;99368.44;;;6.00;88.17
72560;BME280;62987;52.382;9.752;2022-11-18T02:33:50;99370.44;;;5.95;87.98
72560;BME280;62987;52.382;9.752;2022-11-18T02:36:26;99372.13;;;5.96;88.08
72560;BME280;62987;52.382;9.752;2022-11-18T02:38:59;99365.00;;;5.78;87.83
72560;BME280;62987;52.382;9.752;2022-11-18T02:41:31;99328.38;;;5.52;88.88
72560;BME280;62987;52.382;9.752;2022-11-18T02:44:03;99365.16;;;5.75;88.16
72560;BME280;62987;52.382;9.752;2022-11-18T02:46:35;99365.44;;;5.69;89.07
72560;BME280;62987;52.382;9.752;2022-11-18T02:49:08;99363.03;;;5.83;88.09
72560;BME280;62987;52.382;9.752;2022-11-18T02:51:40;99368.50;;;5.79;88.02
72560;BME280;62987;52.382;9.752;2022-11-18T02:54:11;99372.81;;;5.81;88.03
72560;BME280;62987;52.382;9.752;2022-11-18T02:56:41;99378.13;;;5.80;88.47
72560;BME280;62987;52.382;9.752;2022-11-18T02:59:10;99381.09;;;5.72;88.55
72560;BME280;62987;52.382;9.752;2022-11-18T03:01:39;99369.50;;;5.36;89.49
72560;BME280;62987;52.382;9.752;2022-11-18T03:04:07;99382.06;;;5.51;89.56
72560;BME280;62987;52.382;9.752;2022-11-18T03:06:37;99387.44;;;5.68;88.71
72560;BME280;62987;52.382;9.752;2022-11-18T03:09:12;99388.09;;;5.53;88.71
72560;BME280;62987;52.382;9.752;2022-11-18T03:11:48;99396.28;;;5.67;88.88
72560;BME280;62987;52.382;9.752;2022-11-18T03:14:22;99398.97;;;5.66;88.23
72560;BME280;62987;52.382;9.752;2022-11-18T03:16:57;99399.78;;;5.47;89.19
72560;BME280;62987;52.382;9.752;2022-11-18T03:19:44;99408.66;;;5.65;88.47
72560;BME280;62987;52.382;9.752;2022-11-18T03:22:22;99389.88;;;5.73;88.35
72560;BME280;62987;52.382;9.752;2022-11-18T03:24:54;99409.53;;;5.66;87.69
72560;BME280;62987;52.382;9.752;2022-11-18T03:27:26;99412.50;;;5.78;87.38
72560;BME280;62987;52.382;9.752;2022-11-18T03:30:00;99414.63;;;5.50;88.27
72560;BME280;62987;52.382;9.752;2022-11-18T03:32:35;99419.94;;;5.48;87.82
72560;BME280;62987;52.382;9.752;2022-11-18T03:35:07;99413.09;;;5.44;88.63
72560;BME280;62987;52.382;9.752;2022-11-18T03:37:37;99421.72;;;5.48;88.63
72560;BME280;62987;52.382;9.752;2022-11-18T03:40:11;99414.72;;;5.47;88.78
72560;BME280;62987;52.382;9.752;2022-11-18T03:42:42;99427.09;;;5.45;88.56
72560;BME280;62987;52.382;9.752;2022-11-18T03:45:14;99430.88;;;5.59;87.85
72560;BME280;62987;52.382;9.752;2022-11-18T03:47:49;99435.09;;;5.43;88.09
72560;BME280;62987;52.382;9.752;2022-11-18T03:50:23;99385.59;;;5.30;88.46
72560;BME280;62987;52.382;9.752;2022-11-18T03:52:54;99429.53;;;5.29;89.04
72560;BME280;62987;52.382;9.752;2022-11-18T03:55:23;99426.59;;;5.37;88.93
72560;BME280;62987;52.382;9.752;2022-11-18T03:57:58;99431.44;;;5.26;88.70
72560;BME280;62987;52.382;9.752;2022-11-18T04:00:31;99438.81;;;5.17;89.27
72560;BME280;62987;52.382;9.752;2022-11-18T04:03:02;99442.66;;;5.31;88.26
72560;BME280;62987;52.382;9.752;2022-11-18T04:05:33;99450.75;;;5.04;89.02
72560;BME280;62987;52.382;9.752;2022-11-18T04:08:05;99460.00;;;5.14;89.17
72560;BME280;62987;52.382;9.752;2022-11-18T04:10:39;99451.78;;;5.22;89.08
72560;BME280;62987;52.382;9.752;2022-11-18T04:13:11;99462.44;;;5.19;88.92
72560;BME280;62987;52.382;9.752;2022-11-18T04:15:42;99459.09;;;5.15;88.98
72560;BME280;62987;52.382;9.752;2022-11-18T04:18:12;99461.09;;;5.09;89.33
72560;BME280;62987;52.382;9.752;2022-11-18T04:20:40;99458.78;;;5.23;88.90
72560;BME280;62987;52.382;9.752;2022-11-18T04:23:08;99464.28;;;4.95;89.39
72560;BME280;62987;52.382;9.752;2022-11-18T04:25:36;99457.06;;;5.00;89.65
72560;BME280;62987;52.382;9.752;2022-11-18T04:28:04;99463.56;;;5.13;89.04
72560;BME280;62987;52.382;9.752;2022-11-18T04:30:33;99467.72;;;5.19;88.96
72560;BME280;62987;52.382;9.752;2022-11-18T04:33:00;99466.81;;;4.98;89.34
72560;BME280;62987;52.382;9.752;2022-11-18T04:35:30;99471.13;;;4.99;89.17
72560;BME280;62987;52.382;9.752;2022-11-18T04:37:58;99470.69;;;5.11;89.02
72560;BME280;62987;52.382;9.752;2022-11-18T04:40:26;99479.38;;;5.13;88.69
72560;BME280;62987;52.382;9.752;2022-11-18T04:42:54;99488.06;;;5.15;88.74
72560;BME280;62987;52.382;9.752;2022-11-18T04:45:21;99484.53;;;5.16;88.91
72560;BME280;62987;52.382;9.752;2022-11-18T04:47:49;99485.78;;;5.06;88.92
72560;BME280;62987;52.382;9.752;2022-11-18T04:50:17;99497.09;;;5.10;88.36
72560;BME280;62987;52.382;9.752;2022-11-18T04:52:47;99498.97;;;5.06;88.85
72560;BME280;62987;52.382;9.752;2022-11-18T04:55:15;99491.88;;;5.08;88.66
72560;BME280;62987;52.382;9.752;2022-11-18T04:57:43;99494.66;;;4.82;89.23
72560;BME280;62987;52.382;9.752;2022-11-18T05:00:11;99492.69;;;4.87;89.11
72560;BME280;62987;52.382;9.752;2022-11-18T05:02:39;99495.28;;;4.89;89.06
72560;BME280;62987;52.382;9.752;2022-11-18T05:05:07;99495.00;;;4.96;88.91
72560;BME280;62987;52.382;9.752;2022-11-18T05:07:35;99494.66;;;4.82;89.26
72560;BME280;62987;52.382;9.752;2022-11-18T05:10:05;99501.00;;;4.76;89.74
72560;BME280;62987;52.382;9.752;2022-11-18T05:12:34;99501.88;;;4.77;89.64
72560;BME280;62987;52.382;9.752;2022-11-18T05:15:16;99512.06;;;4.86;89.62
72560;BME280;62987;52.382;9.752;2022-11-18T05:17:45;99511.66;;;4.97;89.21
72560;BME280;62987;52.382;9.752;2022-11-18T05:20:13;99505.53;;;4.96;88.40
72560;BME280;62987;52.382;9.752;2022-11-18T05:22:41;99511.91;;;5.12;88.10
72560;BME280;62987;52.382;9.752;2022-11-18T05:25:11;99521.97;;;5.03;88.17
72560;BME280;62987;52.382;9.752;2022-11-18T05:27:39;99485.94;;;4.80;88.77
72560;BME280;62987;52.382;9.752;2022-11-18T05:30:08;99532.91;;;4.92;89.03
72560;BME280;62987;52.382;9.752;2022-11-18T05:32:36;99537.94;;;4.75;89.18
72560;BME280;62987;52.382;9.752;2022-11-18T05:35:05;99534.84;;;4.87;88.71
72560;BME280;62987;52.382;9.752;2022-11-18T05:37:33;99531.19;;;4.91;88.50
72560;BME280;62987;52.382;9.752;2022-11-18T05:40:00;99535.44;;;4.72;89.37
72560;BME280;62987;52.382;9.752;2022-11-18T05:42:30;99534.28;;;4.79;89.17
72560;BME280;62987;52.382;9.752;2022-11-18T05:45:12;99537.03;;;4.76;88.72
72560;BME280;62987;52.382;9.752;2022-11-18T05:47:41;99544.59;;;4.85;88.69
72560;BME280;62987;52.382;9.752;2022-11-18T05:50:23;99562.78;;;4.68;88.54
72560;BME280;62987;52.382;9.752;2022-11-18T05:52:51;99548.66;;;4.70;88.72
72560;BME280;62987;52.382;9.752;2022-11-18T05:55:20;99555.38;;;4.54;89.58
72560;BME280;62987;52.382;9.752;2022-11-18T05:57:50;99553.50;;;4.81;88.55
72560;BME280;62987;52.382;9.752;2022-11-18T06:00:18;99560.31;;;4.87;87.93
72560;BME280;62987;52.382;9.752;2022-11-18T06:02:48;99559.50;;;4.86;88.46
72560;BME280;62987;52.382;9.752;2022-11-18T06:05:19;99559.19;;;4.70;88.98
72560;BME280;62987;52.382;9.752;2022-11-18T06:07:48;99561.19;;;4.87;88.11
72560;BME280;62987;52.382;9.752;2022-11-18T06:10:18;99547.09;;;4.88;87.65
72560;BME280;62987;52.382;9.752;2022-11-18T06:12:51;99566.81;;;4.78;88.20
72560;BME280;62987;52.382;9.752;2022-11-18T06:15:22;99568.75;;;4.96;87.79
72560;BME280;62987;52.382;9.752;2022-11-18T06:17:53;99582.38;;;4.84;88.10
72560;BME280;62987;52.382;9.752;2022-11-18T06:20:23;99546.75;;;4.51;88.34
72560;BME280;62987;52.382;9.752;2022-11-18T06:22:53;99580.56;;;4.86;87.70
72560;BME280;62987;52.382;9.752;2022-11-18T06:25:23;99585.94;;;4.83;87.80
72560;BME280;62987;52.382;9.752;2022-11-18T06:27:55;99594.22;;;4.72;87.76
72560;BME280;62987;52.382;9.752;2022-11-18T06:30:24;99599.19;;;4.57;88.40
72560;BME280;62987;52.382;9.752;2022-11-18T06:32:52;99605.28;;;4.82;87.58
72560;BME280;62987;52.382;9.752;2022-11-18T06:35:20;99605.09;;;4.63;88.46
72560;BME280;62987;52.382;9.752;2022-11-18T06:37:48;99613.69;;;4.43;88.76
72560;BME280;62987;52.382;9.752;2022-11-18T06:40:16;99611.25;;;4.62;88.13
72560;BME280;62987;52.382;9.752;2022-11-18T06:42:44;99613.44;;;4.51;88.05
72560;BME280;62987;52.382;9.752;2022-11-18T06:45:31;99613.38;;;4.53;87.97
72560;BME280;62987;52.382;9.752;2022-11-18T06:47:59;99620.06;;;4.36;88.78
72560;BME280;62987;52.382;9.752;2022-11-18T06:50:26;99619.63;;;4.24;88.79
72560;BME280;62987;52.382;9.752;2022-11-18T06:52:55;99623.88;;;4.28;88.94
72560;BME280;62987;52.382;9.752;2022-11-18T06:55:23;99619.59;;;4.25;88.52
72560;BME280;62987;52.382;9.752;2022-11-18T06:57:51;99628.75;;;4.40;88.66
72560;BME280;62987;52.382;9.752;2022-11-18T07:00:19;99630.50;;;4.39;88.75
72560;BME280;62987;52.382;9.752;2022-11-18T07:02:48;99627.44;;;4.52;87.84
72560;BME280;62987;52.382;9.752;2022-11-18T07:05:16;99646.34;;;4.63;88.00
72560;BME280;62987;52.382;9.752;2022-11-18T07:07:44;99639.72;;;4.53;88.29
72560;BME280;62987;52.382;9.752;2022-11-18T07:10:13;99645.75;;;4.55;87.90
72560;BME280;62987;52.382;9.752;2022-11-18T07:12:41;99646.38;;;4.36;88.89
72560;BME280;62987;52.382;9.752;2022-11-18T07:15:10;99655.97;;;4.39;88.57
72560;BME280;62987;52.382;9.752;2022-11-18T07:17:38;99656.75;;;4.41;88.47
72560;BME280;62987;52.382;9.752;2022-11-18T07:20:08;99658.72;;;4.34;88.66
72560;BME280;62987;52.382;9.752;2022-11-18T07:22:36;99662.19;;;4.36;88.39
72560;BME280;62987;52.382;9.752;2022-11-18T07:25:05;99660.97;;;4.47;88.94
72560;BME280;62987;52.382;9.752;2022-11-18T07:27:33;99667.16;;;4.46;87.97
72560;BME280;62987;52.382;9.752;2022-11-18T07:30:01;99671.44;;;4.48;87.87
72560;BME280;62987;52.382;9.752;2022-11-18T07:32:29;99671.88;;;4.34;88.40
72560;BME280;62987;52.382;9.752;2022-11-18T07:34:59;99683.84;;;4.45;87.93
72560;BME280;62987;52.382;9.752;2022-11-18T07:37:28;99684.97;;;4.37;88.32
72560;BME280;62987;52.382;9.752;2022-11-18T07:39:56;99694.88;;;4.29;87.60
72560;BME280;62987;52.382;9.752;2022-11-18T07:42:25;99693.06;;;4.31;87.74
72560;BME280;62987;52.382;9.752;2022-11-18T07:44:53;99696.16;;;4.18;87.89
72560;BME280;62987;52.382;9.752;2022-11-18T07:47:21;99706.09;;;4.34;87.88
72560;BME280;62987;52.382;9.752;2022-11-18T07:49:49;99713.38;;;4.00;88.56
72560;BME280;62987;52.382;9.752;2022-11-18T07:52:17;99722.44;;;3.90;89.05
72560;BME280;62987;52.382;9.752;2022-11-18T07:54:46;99713.06;;;4.09;88.38
72560;BME280;62987;52.382;9.752;2022-11-18T07:57:14;99706.19;;;4.05;88.35
72560;BME280;62987;52.382;9.752;2022-11-18T07:59:42;99713.78;;;3.88;88.90
72560;BME280;62987;52.382;9.752;2022-11-18T08:02:26;99711.38;;;4.08;88.41
72560;BME280;62987;52.382;9.752;2022-11-18T08:04:54;99719.97;;;4.13;88.32
72560;BME280;62987;52.382;9.752;2022-11-18T08:07:22;99723.53;;;4.12;88.23
72560;BME280;62987;52.382;9.752;2022-11-18T08:09:50;99731.28;;;4.15;87.76
72560;BME280;62987;52.382;9.752;2022-11-18T08:12:18;99734.31;;;4.03;88.15
72560;BME280;62987;52.382;9.752;2022-11-18T08:14:46;99733.81;;;4.20;87.37
72560;BME280;62987;52.382;9.752;2022-11-18T08:17:14;99736.09;;;4.02;87.06
72560;BME280;62987;52.382;9.752;2022-11-18T08:19:43;99739.59;;;4.03;87.87
72560;BME280;62987;52.382;9.752;2022-11-18T08:22:11;99742.97;;;4.08;88.05
72560;BME280;62987;52.382;9.752;2022-11-18T08:24:39;99744.06;;;4.01;87.73
72560;BME280;62987;52.382;9.752;2022-11-18T08:27:07;99746.69;;;4.01;88.11
72560;BME280;62987;52.382;9.752;2022-11-18T08:29:35;99747.97;;;3.88;88.39
72560;BME280;62987;52.382;9.752;2022-11-18T08:32:04;99750.69;;;4.13;87.37
72560;BME280;62987;52.382;9.752;2022-11-18T08:34:33;99750.28;;;3.97;88.12
72560;BME280;62987;52.382;9.752;2022-11-18T08:37:03;99757.66;;;3.86;87.69
72560;BME280;62987;52.382;9.752;2022-11-18T08:39:31;99748.25;;;3.77;87.56
72560;BME280;62987;52.382;9.752;2022-11-18T08:41:59;99767.53;;;3.78;87.39
72560;BME280;62987;52.382;9.752;2022-11-18T08:44:27;99770.09;;;3.81;87.74
72560;BME280;62987;52.382;9.752;2022-11-18T08:46:56;99775.44;;;3.78;87.60
72560;BME280;62987;52.382;9.752;2022-11-18T08:49:24;99767.91;;;3.95;87.20
72560;BME280;62987;52.382;9.752;2022-11-18T08:51:58;99784.41;;;3.71;88.14
72560;BME280;62987;52.382;9.752;2022-11-18T08:54:27;99792.75;;;3.85;87.67
72560;BME280;62987;52.382;9.752;2022-11-18T08:56:55;99791.88;;;3.84;87.78
72560;BME280;62987;52.382;9.752;2022-11-18T08:59:25;99785.75;;;3.84;87.29
72560;BME280;62987;52.382;9.752;2022-11-18T09:01:53;99799.66;;;3.89;87.34
72560;BME280;62987;52.382;9.752;2022-11-18T09:04:21;99798.44;;;3.70;87.98
72560;BME280;62987;52.382;9.752;2022-11-18T09:06:49;99803.44;;;3.49;88.17
72560;BME280;62987;52.382;9.752;2022-11-18T09:09:17;99796.34;;;3.51;87.63
72560;BME280;62987;52.382;9.752;2022-11-18T09:11:47;99806.22;;;3.43;88.83
72560;BME280;62987;52.382;9.752;2022-11-18T09:14:15;99798.28;;;3.45;88.01
72560;BME280;62987;52.382;9.752;2022-11-18T09:17:04;99800.03;;;3.44;88.29
72560;BME280;62987;52.382;9.752;2022-11-18T09:19:32;99812.19;;;3.50;87.36
72560;BME280;62987;52.382;9.752;2022-11-18T09:22:15;99812.22;;;3.48;87.79
72560;BME280;62987;52.382;9.752;2022-11-18T09:24:43;99826.56;;;3.37;87.89
72560;BME280;62987;52.382;9.752;2022-11-18T09:27:12;99840.31;;;3.12;88.24
72560;BME280;62987;52.382;9.752;2022-11-18T09:30:00;99828.09;;;3.11;88.40
72560;BME280;62987;52.382;9.752;2022-11-18T09:32:28;99825.69;;;3.04;88.42
72560;BME280;62987;52.382;9.752;2022-11-18T09:34:56;99832.28;;;3.18;88.18
72560;BME280;62987;52.382;9.752;2022-11-18T09:37:24;99838.16;;;3.28;88.00
72560;BME280;62987;52.382;9.752;2022-11-18T09:39:52;99831.09;;;2.98;88.78
72560;BME280;62987;52.382;9.752;2022-11-18T09:42:38;99838.56;;;3.13;87.82
72560;BME280;62987;52.382;9.752;2022-11-18T09:45:18;99846.97;;;3.26;87.16
72560;BME280;62987;52.382;9.752;2022-11-18T09:47:55;99841.66;;;2.95;87.25
72560;BME280;62987;52.382;9.752;2022-11-18T09:50:24;99845.75;;;3.05;87.14
72560;BME280;62987;52.382;9.752;2022-11-18T09:53:17;99853.94;;;3.28;86.68
72560;BME280;62987;52.382;9.752;2022-11-18T09:55:46;99851.53;;;3.19;87.03
72560;BME280;62987;52.382;9.752;2022-11-18T09:58:20;99867.56;;;3.10;87.08
72560;BME280;62987;52.382;9.752;2022-11-18T10:00:49;99865.78;;;3.10;86.90
72560;BME280;62987;52.382;9.752;2022-11-18T10:03:24;99867.50;;;3.11;86.55
72560;BME280;62987;52.382;9.752;2022-11-18T10:05:56;99860.94;;;3.28;86.09
72560;BME280;62987;52.382;9.752;2022-11-18T10:08:32;99879.00;;;3.41;86.10
72560;BME280;62987;52.382;9.752;2022-11-18T10:11:09;99867.47;;;3.13;86.21
72560;BME280;62987;52.382;9.752;2022-11-18T10:13:49;99882.31;;;3.14;86.68
72560;BME280;62987;52.382;9.752;2022-11-18T10:16:31;99880.91;;;3.01;86.25
72560;BME280;62987;52.382;9.752;2022-11-18T10:19:19;99896.13;;;2.87;86.63
72560;BME280;62987;52.382;9.752;2022-11-18T10:21:56;99898.25;;;3.08;86.33
72560;BME280;62987;52.382;9.752;2022-11-18T10:24:31;99899.72;;;2.84;86.52
72560;BME280;62987;52.382;9.752;2022-11-18T10:27:08;99894.69;;;3.10;86.01
72560;BME280;62987;52.382;9.752;2022-11-18T10:29:38;99893.28;;;2.96;86.69
72560;BME280;62987;52.382;9.752;2022-11-18T10:32:10;99893.88;;;3.07;86.72
72560;BME280;62987;52.382;9.752;2022-11-18T10:34:46;99902.66;;;3.06;86.46
72560;BME280;62987;52.382;9.752;2022-11-18T10:37:22;99910.44;;;2.73;87.89
72560;BME280;62987;52.382;9.752;2022-11-18T10:40:23;99911.81;;;2.90;88.21
72560;BME280;62987;52.382;9.752;2022-11-18T10:42:51;99905.81;;;2.85;87.33
72560;BME280;62987;52.382;9.752;2022-11-18T10:45:25;99920.47;;;2.93;87.30
72560;BME280;62987;52.382;9.752;2022-11-18T10:47:57;99921.34;;;2.94;87.70
72560;BME280;62987;52.382;9.752;2022-11-18T10:50:32;99923.56;;;2.73;87.29
72560;BME280;62987;52.382;9.752;2022-11-18T10:53:00;99914.88;;;2.71;87.80
72560;BME280;62987;52.382;9.752;2022-11-18T10:55:29;99919.59;;;2.93;87.82
72560;BME280;62987;52.382;9.752;2022-11-18T10:58:00;99926.22;;;3.09;87.58
72560;BME280;62987;52.382;9.752;2022-11-18T11:00:52;99933.53;;;2.98;87.38
72560;BME280;62987;52.382;9.752;2022-11-18T11:03:35;99939.53;;;3.01;86.86
72560;BME280;62987;52.382;9.752;2022-11-18T11:06:31;99934.50;;;2.92;86.59
72560;BME280;62987;52.382;9.752;2022-11-18T11:09:06;99945.00;;;2.92;87.46
72560;BME280;62987;52.382;9.752;2022-11-18T11:11:37;99943.88;;;3.04;87.40
72560;BME280;62987;52.382;9.752;2022-11-18T11:14:18;99948.09;;;2.72;86.83
72560;BME280;62987;52.382;9.752;2022-11-18T11:16:57;99955.22;;;2.66;87.28
72560;BME280;62987;52.382;9.752;2022-11-18T11:19:34;99945.44;;;2.74;87.24
72560;BME280;62987;52.382;9.752;2022-11-18T11:22:09;99959.66;;;2.65;87.80
72560;BME280;62987;52.382;9.752;2022-11-18T11:24:37;99950.66;;;2.75;87.71
72560;BME280;62987;52.382;9.752;2022-11-18T11:27:33;99960.13;;;2.83;86.86
72560;BME280;62987;52.382;9.752;2022-11-18T11:30:24;99967.16;;;2.80;87.48
72560;BME280;62987;52.382;9.752;2022-11-18T11:33:13;99963.66;;;2.80;87.37
72560;BME280;62987;52.382;9.752;2022-11-18T11:35:58;99962.19;;;2.68;87.27
72560;BME280;62987;52.382;9.752;2022-11-18T11:38:35;99962.00;;;2.77;87.64
72560;BME280;62987;52.382;9.752;2022-11-18T11:41:14;99970.75;;;2.76;87.53
72560;BME280;62987;52.382;9.752;2022-11-18T11:43:58;99963.66;;;2.81;87.37
72560;BME280;62987;52.382;9.752;2022-11-18T11:46:36;99974.16;;;2.81;86.76
72560;BME280;62987;52.382;9.752;2022-11-18T11:49:15;99978.22;;;2.95;87.75
72560;BME280;62987;52.382;9.752;2022-11-18T11:51:49;99982.44;;;3.02;87.30
72560;BME280;62987;52.382;9.752;2022-11-18T11:54:28;99976.63;;;2.88;87.26
72560;BME280;62987;52.382;9.752;2022-11-18T11:57:03;99982.88;;;2.84;87.01
72560;BME280;62987;52.382;9.752;2022-11-18T11:59:38;99965.97;;;2.55;86.97
72560;BME280;62987;52.382;9.752;2022-11-18T12:02:28;99988.44;;;2.68;87.30
72560;BME280;62987;52.382;9.752;2022-11-18T12:05:09;99994.41;;;2.75;86.63
72560;BME280;62987;52.382;9.752;2022-11-18T12:07:46;99996.16;;;2.76;87.04
72560;BME280;62987;52.382;9.752;2022-11-18T12:10:26;99991.75;;;2.76;87.56
72560;BME280;62987;52.382;9.752;2022-11-18T12:13:06;99975.59;;;2.55;86.70
72560;BME280;62987;52.382;9.752;2022-11-18T12:15:43;100001.06;;;2.51;86.48
72560;BME280;62987;52.382;9.752;2022-11-18T12:18:19;100003.44;;;2.63;86.82
72560;BME280;62987;52.382;9.752;2022-11-18T12:20:52;100003.75;;;2.48;87.19
72560;BME280;62987;52.382;9.752;2022-11-18T12:23:24;100004.41;;;2.59;86.84
72560;BME280;62987;52.382;9.752;2022-11-18T12:26:10;100007.31;;;2.46;87.01
72560;BME280;62987;52.382;9.752;2022-11-18T12:28:51;100006.44;;;2.45;87.69
72560;BME280;62987;52.382;9.752;2022-11-18T12:31:33;100000.34;;;2.43;87.31
72560;BME280;62987;52.382;9.752;2022-11-18T12:34:27;100007.38;;;2.41;87.88
72560;BME280;62987;52.382;9.752;2022-11-18T12:40:36;100000.44;;;2.38;87.77
72560;BME280;62987;52.382;9.752;2022-11-18T12:43:05;100023.94;;;2.45;87.73
72560;BME280;62987;52.382;9.752;2022-11-18T12:45:57;100021.34;;;2.43;87.54
72560;BME280;62987;52.382;9.752;2022-11-18T12:48:30;100027.09;;;2.60;86.79
72560;BME280;62987;52.382;9.752;2022-11-18T12:50:59;100021.28;;;2.46;86.77
72560;BME280;62987;52.382;9.752;2022-11-18T12:53:40;100021.47;;;2.37;86.59
72560;BME280;62987;52.382;9.752;2022-11-18T12:56:11;100027.06;;;2.20;87.12
72560;BME280;62987;52.382;9.752;2022-11-18T12:58:43;100030.31;;;2.31;86.30
72560;BME280;62987;52.382;9.752;2022-11-18T13:01:15;100037.25;;;2.34;87.56
72560;BME280;62987;52.382;9.752;2022-11-18T13:03:44;100047.69;;;2.37;86.38
72560;BME280;62987;52.382;9.752;2022-11-18T13:06:20;100040.81;;;2.31;85.96
72560;BME280;62987;52.382;9.752;2022-11-18T13:08:57;100040.06;;;2.26;86.98
72560;BME280;62987;52.382;9.752;2022-11-18T13:11:28;100047.69;;;2.37;86.37
72560;BME280;62987;52.382;9.752;2022-11-18T13:14:15;100055.09;;;2.15;86.59
72560;BME280;62987;52.382;9.752;2022-11-18T13:17:01;100061.16;;;2.20;86.54
72560;BME280;62987;52.382;9.752;2022-11-18T13:19:56;100057.84;;;2.09;85.71
72560;BME280;62987;52.382;9.752;2022-11-18T13:22:24;100055.81;;;2.25;86.76
72560;BME280;62987;52.382;9.752;2022-11-18T13:25:24;100057.31;;;2.38;86.67
72560;BME280;62987;52.382;9.752;2022-11-18T13:27:59;100055.09;;;2.17;86.59
72560;BME280;62987;52.382;9.752;2022-11-18T13:30:34;100059.44;;;2.18;85.72
72560;BME280;62987;52.382;9.752;2022-11-18T13:33:09;100060.28;;;2.20;85.63
72560;BME280;62987;52.382;9.752;2022-11-18T13:35:38;100066.22;;;2.28;85.77
72560;BME280;62987;52.382;9.752;2022-11-18T13:38:18;100073.19;;;2.30;86.38
72560;BME280;62987;52.382;9.752;2022-11-18T13:40:55;100025.06;;;1.85;85.74
72560;BME280;62987;52.382;9.752;2022-11-18T13:43:34;100070.81;;;2.18;85.26